Time;durP1;ratioP1;P1;durP2;ratioP2;P2;SDS_P1;SDS_P2;PMS_P1;PMS_P2;Temp;Humidity;BMP_temperature;BMP_pressure;BME280_temperature;BME280_humidity;BME280_pressure;Samples;Min_cycle;Max_cycle;Signal;HPM_P1;HPM_P2
2021/05/11 00:01:45;;;;;;;4.22;3.58;;;15.40;99.90;;;;;;5044443;28;20459;-76
2021/05/11 00:04:13;;;;;;;5.00;3.00;;;15.40;99.90;;;;;;5043613;28;20052;-76
2021/05/11 00:06:40;;;;;;;4.65;3.40;;;15.30;99.90;;;;;;5046432;28;20460;-77
2021/05/11 00:09:07;;;;;;;4.63;3.22;;;15.30;99.90;;;;;;5044504;28;20049;-77
2021/05/11 00:11:36;;;;;;;4.53;2.70;;;15.30;99.90;;;;;;5045256;28;20060;-74
2021/05/11 00:14:05;;;;;;;3.85;3.00;;;15.30;99.90;;;;;;5046460;28;20045;-77
2021/05/11 00:16:32;;;;;;;3.72;2.78;;;15.30;99.90;;;;;;5047462;28;20131;-77
2021/05/11 00:19:01;;;;;;;5.70;2.92;;;15.20;99.90;;;;;;5041030;28;20049;-77
2021/05/11 00:21:27;;;;;;;9.80;4.03;;;15.30;99.90;;;;;;5041956;28;20159;-77
2021/05/11 00:23:54;;;;;;;6.40;3.25;;;15.30;99.90;;;;;;5044761;28;20087;-78
2021/05/11 00:26:20;;;;;;;4.53;3.50;;;15.20;99.90;;;;;;5047573;28;20060;-76
2021/05/11 00:28:47;;;;;;;4.82;3.80;;;15.20;99.90;;;;;;5044065;28;20396;-77
2021/05/11 00:31:13;;;;;;;5.93;3.47;;;15.20;99.90;;;;;;5049299;28;20372;-76
2021/05/11 00:33:39;;;;;;;6.38;3.90;;;15.10;99.90;;;;;;5047040;28;20053;-74
2021/05/11 00:36:06;;;;;;;5.40;3.67;;;15.20;99.90;;;;;;5039779;28;20056;-76
2021/05/11 00:38:33;;;;;;;5.07;3.70;;;15.30;99.90;;;;;;5048729;28;20041;-74
2021/05/11 00:40:59;;;;;;;5.80;4.10;;;15.30;99.90;;;;;;5051736;28;20330;-74
2021/05/11 00:43:26;;;;;;;6.38;4.50;;;15.20;99.90;;;;;;5047262;28;20057;-74
2021/05/11 00:45:52;;;;;;;6.65;4.30;;;15.20;99.90;;;;;;5047676;28;20473;-74
2021/05/11 00:48:19;;;;;;;6.90;4.35;;;15.20;99.90;;;;;;5065990;28;20076;-75
2021/05/11 00:50:46;;;;;;;5.30;3.88;;;15.10;99.90;;;;;;5050824;28;20080;-74
2021/05/11 00:53:12;;;;;;;5.72;4.40;;;15.10;99.90;;;;;;5053540;28;20053;-73
2021/05/11 00:55:39;;;;;;;6.57;4.93;;;15.10;99.90;;;;;;5050832;28;20122;-75
2021/05/11 00:58:06;;;;;;;7.65;4.97;;;15.10;99.90;;;;;;5049971;28;20481;-76
2021/05/11 01:00:32;;;;;;;7.32;5.50;;;15.10;99.90;;;;;;5066592;28;20049;-76
2021/05/11 01:02:59;;;;;;;7.97;5.93;;;15.10;99.90;;;;;;5050945;28;20071;-76
2021/05/11 01:05:25;;;;;;;7.10;5.38;;;15.20;99.90;;;;;;5045968;28;20068;-75
2021/05/11 01:07:52;;;;;;;6.68;4.75;;;15.10;99.90;;;;;;5045121;28;20107;-75
2021/05/11 01:10:18;;;;;;;6.97;4.88;;;15.10;99.90;;;;;;5050614;28;20049;-76
2021/05/11 01:12:45;;;;;;;6.20;5.03;;;15.10;99.90;;;;;;5051806;28;20110;-75
2021/05/11 01:15:12;;;;;;;6.07;4.25;;;15.20;99.90;;;;;;5049390;28;20454;-74
2021/05/11 01:17:40;;;;;;;6.45;4.70;;;15.20;99.90;;;;;;5050831;28;20103;-74
2021/05/11 01:20:14;;;;;;;5.13;4.10;;;15.20;99.90;;;;;;5049487;28;20150;-74
2021/05/11 01:23:11;;;;;;;6.65;4.63;;;15.20;99.90;;;;;;5047674;28;20049;-74
2021/05/11 01:25:39;;;;;;;6.13;4.60;;;15.20;99.90;;;;;;5049808;28;20053;-74
2021/05/11 01:28:18;;;;;;;7.07;4.85;;;15.20;99.90;;;;;;5040197;28;20115;-75
2021/05/11 01:50:11;;;;;;;6.53;4.38;;;15.00;99.90;;;;;;5050468;28;20056;-75
2021/05/11 01:52:49;;;;;;;7.80;4.32;;;14.90;99.90;;;;;;5047442;28;20045;-76
2021/05/11 02:25:01;;;;;;;4.15;2.75;;;14.70;99.90;;;;;;5056179;28;20052;-76
2021/05/11 02:27:30;;;;;;;3.63;3.15;;;14.70;99.90;;;;;;5056124;28;20135;-75
2021/05/11 02:29:57;;;;;;;8.57;3.42;;;14.80;99.90;;;;;;5052807;28;20048;-76
2021/05/11 02:32:23;;;;;;;5.38;3.30;;;14.80;99.90;;;;;;5029504;28;20106;-76
2021/05/11 02:34:50;;;;;;;4.65;3.30;;;14.80;99.90;;;;;;5049113;28;20053;-76
2021/05/11 02:37:17;;;;;;;4.35;3.22;;;14.70;99.90;;;;;;5049544;28;20495;-75
2021/05/11 02:39:43;;;;;;;6.75;3.67;;;14.80;99.90;;;;;;5048604;28;20041;-75
2021/05/11 02:42:10;;;;;;;6.63;4.47;;;14.80;99.90;;;;;;5047119;28;20388;-75
2021/05/11 02:44:42;;;;;;;5.20;4.40;;;14.80;99.90;;;;;;5048728;28;20052;-75
2021/05/11 02:47:09;;;;;;;6.70;4.38;;;14.80;99.90;;;;;;5046859;28;20131;-76
2021/05/11 02:49:39;;;;;;;8.23;5.22;;;14.80;99.90;;;;;;5049389;28;20060;-76
2021/05/11 02:52:06;;;;;;;5.50;4.65;;;14.80;99.90;;;;;;5042516;28;20102;-75
2021/05/11 02:54:32;;;;;;;7.13;5.22;;;14.90;99.90;;;;;;5048674;28;20404;-75
2021/05/11 02:56:58;;;;;;;5.82;4.65;;;14.90;99.90;;;;;;5047253;28;20048;-75
2021/05/11 02:59:25;;;;;;;6.95;5.40;;;14.80;99.90;;;;;;5049400;28;20150;-76
2021/05/11 03:01:51;;;;;;;9.07;6.22;;;14.70;99.90;;;;;;5042648;28;20053;-75
2021/05/11 03:04:18;;;;;;;8.15;5.57;;;14.60;99.90;;;;;;5044758;28;20136;-76
2021/05/11 03:06:45;;;;;;;9.00;6.05;;;14.60;99.90;;;;;;5042150;28;20072;-76
2021/05/11 03:09:12;;;;;;;7.50;5.50;;;14.60;99.90;;;;;;5045483;28;20049;-75
2021/05/11 03:11:39;;;;;;;9.35;5.97;;;14.60;99.90;;;;;;5043764;28;20115;-76
2021/05/11 03:14:05;;;;;;;7.82;5.38;;;14.70;99.90;;;;;;5047757;28;20052;-75
2021/05/11 03:16:33;;;;;;;8.98;6.18;;;14.70;99.90;;;;;;5048190;28;20045;-76
2021/05/11 03:19:00;;;;;;;8.35;5.97;;;14.70;99.90;;;;;;5045634;28;20488;-76
2021/05/11 03:21:27;;;;;;;8.80;5.65;;;14.70;99.90;;;;;;5048417;28;20132;-74
2021/05/11 03:23:54;;;;;;;6.95;6.00;;;14.80;99.90;;;;;;5047299;28;20128;-74
2021/05/11 03:26:20;;;;;;;6.55;5.20;;;14.80;99.90;;;;;;5047731;28;20049;-75
2021/05/11 03:28:47;;;;;;;10.25;5.43;;;14.90;99.90;;;;;;5044907;28;20100;-73
2021/05/11 03:31:13;;;;;;;6.88;5.32;;;14.80;99.90;;;;;;5046808;28;20044;-75
2021/05/11 03:33:39;;;;;;;7.07;5.25;;;14.80;99.90;;;;;;5044444;28;20052;-73
2021/05/11 03:36:06;;;;;;;7.03;5.25;;;14.70;99.90;;;;;;5046497;28;20099;-74
2021/05/11 03:38:33;;;;;;;8.13;5.13;;;14.70;99.90;;;;;;5048995;28;20396;-73
2021/05/11 03:40:59;;;;;;;7.60;4.95;;;14.70;99.90;;;;;;5047298;28;20461;-74
2021/05/11 03:43:30;;;;;;;6.85;4.85;;;14.70;99.90;;;;;;5045044;28;20091;-74
2021/05/11 03:46:05;;;;;;;;;;;14.60;99.90;;;;;;5048769;28;20075;-74
2021/05/11 03:48:31;;;;;;;6.47;5.07;;;14.70;99.90;;;;;;5045776;28;20404;-74
2021/05/11 03:51:05;;;;;;;8.73;5.18;;;14.70;99.90;;;;;;5046281;28;20094;-74
2021/05/11 03:53:33;;;;;;;5.63;4.47;;;14.60;99.90;;;;;;5053373;28;20048;-74
2021/05/11 03:56:00;;;;;;;8.35;4.63;;;14.70;99.90;;;;;;5046223;28;20044;-74
2021/05/11 03:58:27;;;;;;;7.03;4.88;;;14.70;99.90;;;;;;5047128;28;20167;-74
2021/05/11 04:00:54;;;;;;;6.57;4.60;;;14.70;99.90;;;;;;5049377;28;20747;-73
2021/05/11 04:03:21;;;;;;;8.82;4.50;;;14.60;99.90;;;;;;5044337;28;20091;-74
2021/05/11 04:05:50;;;;;;;6.40;5.28;;;14.50;99.90;;;;;;5040664;28;20522;-75
2021/05/11 04:11:33;;;;;;;7.82;4.68;;;14.30;99.90;;;;;;5043118;28;20711;-75
2021/05/11 04:16:39;;;;;;;3.58;3.10;;;14.30;99.90;;;;;;5052725;28;20049;-73
2021/05/11 04:19:06;;;;;;;3.80;3.33;;;14.30;99.90;;;;;;5050702;28;20056;-74
2021/05/11 04:21:33;;;;;;;3.47;2.80;;;14.20;99.90;;;;;;5049946;28;20106;-74
2021/05/11 04:24:01;;;;;;;4.70;3.28;;;14.30;99.90;;;;;;5042851;28;20045;-74
2021/05/11 04:26:28;;;;;;;3.47;2.80;;;14.30;99.90;;;;;;5048484;28;20102;-75
2021/05/11 04:28:55;;;;;;;6.90;2.97;;;14.30;99.90;;;;;;5051283;28;20045;-75
2021/05/11 04:31:22;;;;;;;3.72;3.20;;;14.50;99.90;;;;;;5048344;28;20132;-74
2021/05/11 04:33:48;;;;;;;4.40;3.60;;;14.50;99.90;;;;;;5055112;28;20094;-74
2021/05/11 04:36:16;;;;;;;4.13;3.38;;;14.60;99.90;;;;;;5051002;28;20114;-74
2021/05/11 04:38:43;;;;;;;4.38;3.42;;;14.50;99.90;;;;;;5048819;28;20041;-74
2021/05/11 04:41:10;;;;;;;4.30;3.63;;;14.50;99.90;;;;;;5049922;28;20045;-74
2021/05/11 04:43:39;;;;;;;4.95;3.70;;;14.50;99.90;;;;;;5048409;28;20096;-74
2021/05/11 04:46:25;;;;;;;5.47;3.83;;;14.50;99.90;;;;;;5050972;28;20091;-73
2021/05/11 04:48:53;;;;;;;6.45;3.97;;;14.50;99.90;;;;;;5050042;28;20059;-73
2021/05/11 04:51:21;;;;;;;7.43;3.80;;;14.60;99.90;;;;;;5047603;28;20072;-75
2021/05/11 04:53:48;;;;;;;4.68;3.83;;;14.60;99.90;;;;;;5052137;28;20057;-73
2021/05/11 04:56:15;;;;;;;5.55;3.47;;;14.60;99.90;;;;;;5044783;28;20053;-75
2021/05/11 04:58:43;;;;;;;7.38;3.92;;;14.70;99.90;;;;;;5053267;28;20110;-75
2021/05/11 05:01:10;;;;;;;5.10;3.45;;;14.70;99.90;;;;;;5050019;28;20060;-75
2021/05/11 05:03:40;;;;;;;5.10;3.30;;;14.70;99.90;;;;;;5030579;28;20411;-73
2021/05/11 05:06:07;;;;;;;6.40;3.37;;;14.70;99.90;;;;;;5046928;28;20048;-73
2021/05/11 05:08:35;;;;;;;7.65;3.08;;;14.70;99.90;;;;;;5050767;28;20053;-74
2021/05/11 05:11:02;;;;;;;7.32;3.88;;;14.90;99.90;;;;;;5048131;28;20071;-74
2021/05/11 05:13:29;;;;;;;7.03;3.90;;;14.90;99.90;;;;;;5051849;28;20500;-75
2021/05/11 05:15:58;;;;;;;3.83;3.00;;;14.90;99.90;;;;;;5045485;28;20491;-74
2021/05/11 05:18:29;;;;;;;7.30;3.25;;;14.90;99.90;;;;;;5050367;28;20056;-75
2021/05/11 05:20:56;;;;;;;6.35;3.58;;;14.70;99.90;;;;;;5044301;28;20083;-74
2021/05/11 05:23:33;;;;;;;7.43;3.65;;;14.80;99.90;;;;;;5049928;28;20172;-74
2021/05/11 05:26:06;;;;;;;6.25;4.40;;;14.80;99.90;;;;;;5050380;28;20094;-74
2021/05/11 05:28:36;;;;;;;8.98;3.70;;;14.90;99.90;;;;;;5049474;28;20067;-75
2021/05/11 05:31:04;;;;;;;5.63;3.17;;;14.90;99.90;;;;;;5047081;28;20072;-74
2021/05/11 05:33:33;;;;;;;4.13;2.83;;;14.90;99.90;;;;;;5044595;28;20442;-75
2021/05/11 05:36:02;;;;;;;3.70;2.47;;;14.90;99.90;;;;;;5066244;28;20077;-75
2021/05/11 05:38:29;;;;;;;3.78;2.40;;;14.80;99.90;;;;;;5046214;28;20107;-74
2021/05/11 05:41:01;;;;;;;4.60;2.30;;;14.80;99.90;;;;;;5043091;28;20159;-75
2021/05/11 05:43:28;;;;;;;2.25;1.58;;;14.90;99.90;;;;;;5045884;28;20055;-75
2021/05/11 05:45:55;;;;;;;3.30;1.50;;;14.90;99.90;;;;;;5047911;28;20487;-75
2021/05/11 05:48:22;;;;;;;2.65;1.58;;;14.90;99.90;;;;;;5049978;28;20178;-74
2021/05/11 05:50:55;;;;;;;3.35;1.50;;;14.90;99.90;;;;;;5051297;28;20048;-75
2021/05/11 05:53:26;;;;;;;7.03;1.50;;;15.00;99.90;;;;;;5049274;28;20542;-74
2021/05/11 05:55:53;;;;;;;10.18;1.70;;;15.10;99.90;;;;;;5047588;28;20202;-74
2021/05/11 05:58:20;;;;;;;1.60;1.35;;;15.10;99.90;;;;;;5048588;28;20408;-75
2021/05/11 06:00:51;;;;;;;6.38;1.30;;;15.10;99.90;;;;;;5047530;28;20049;-76
2021/05/11 06:03:31;;;;;;;6.72;2.33;;;15.10;99.90;;;;;;5048458;28;20053;-74
2021/05/11 06:05:58;;;;;;;8.77;2.78;;;15.00;99.90;;;;;;5046376;28;20093;-74
2021/05/11 06:08:27;;;;;;;6.13;3.05;;;14.90;99.90;;;;;;5050821;28;20053;-74
2021/05/11 06:11:00;;;;;;;6.75;3.00;;;14.80;99.90;;;;;;5047968;28;20045;-74
2021/05/11 06:13:34;;;;;;;3.92;1.65;;;14.90;99.90;;;;;;5048020;28;20106;-74
2021/05/11 06:18:47;;;;;;;7.70;2.80;;;14.90;99.90;;;;;;5051794;28;20075;-74
2021/05/11 06:21:15;;;;;;;5.60;1.80;;;14.80;99.90;;;;;;5043545;28;20465;-75
2021/05/11 06:23:41;;;;;;;3.25;1.90;;;14.80;99.90;;;;;;5048544;28;20076;-75
2021/05/11 06:26:09;;;;;;;2.85;2.00;;;14.80;99.90;;;;;;5049171;28;20079;-76
2021/05/11 06:28:40;;;;;;;4.90;1.60;;;15.00;99.90;;;;;;5042957;28;20380;-75
2021/05/11 06:31:08;;;;;;;7.80;1.75;;;15.00;99.90;;;;;;5050042;28;20546;-75
2021/05/11 06:33:35;;;;;;;3.67;1.50;;;15.00;99.90;;;;;;5050775;28;20053;-75
2021/05/11 06:36:03;;;;;;;3.25;1.50;;;15.00;99.90;;;;;;5047943;28;20048;-75
2021/05/11 06:38:31;;;;;;;1.52;1.40;;;15.00;99.90;;;;;;5046782;28;20090;-75
2021/05/11 06:40:58;;;;;;;2.35;2.15;;;15.10;99.90;;;;;;5047305;28;20080;-73
2021/05/11 06:43:28;;;;;;;5.35;2.10;;;15.10;99.90;;;;;;5043520;28;20045;-75
2021/05/11 06:48:25;;;;;;;6.82;2.30;;;15.20;99.90;;;;;;5050036;28;20580;-75
2021/05/11 06:53:38;;;;;;;6.85;2.80;;;15.00;99.90;;;;;;5045614;28;20079;-73
2021/05/11 06:56:09;;;;;;;9.52;4.85;;;15.00;99.90;;;;;;5060308;28;20108;-73
2021/05/11 06:58:37;;;;;;;4.95;2.88;;;15.00;99.90;;;;;;5046792;28;20146;-73
2021/05/11 07:01:04;;;;;;;7.90;2.70;;;15.00;99.90;;;;;;5047522;28;20472;-74
2021/05/11 07:03:32;;;;;;;5.05;2.47;;;15.00;99.90;;;;;;5047883;28;21337;-73
2021/05/11 07:06:00;;;;;;;6.45;3.60;;;15.10;99.90;;;;;;5044712;28;20056;-74
2021/05/11 07:08:34;;;;;;;6.00;2.50;;;14.90;99.90;;;;;;5048033;28;20095;-74
2021/05/11 07:11:23;;;;;;;6.82;2.83;;;14.90;99.90;;;;;;5047149;28;20073;-75
2021/05/11 07:13:50;;;;;;;2.85;1.95;;;14.90;99.90;;;;;;5040365;28;20049;-75
2021/05/11 07:16:18;;;;;;;3.08;2.40;;;14.90;99.90;;;;;;5048616;28;20052;-74
2021/05/11 07:18:45;;;;;;;3.45;2.10;;;15.00;99.90;;;;;;5045141;28;20136;-74
2021/05/11 07:21:12;;;;;;;3.75;2.53;;;15.10;99.90;;;;;;5049015;28;20061;-73
2021/05/11 07:23:39;;;;;;;2.47;2.25;;;15.10;99.90;;;;;;5042882;28;20037;-75
2021/05/11 07:29:02;;;;;;;4.93;2.40;;;15.10;99.90;;;;;;5044625;28;20052;-74
2021/05/11 07:31:29;;;;;;;4.13;2.83;;;15.10;99.90;;;;;;5046741;28;20064;-74
2021/05/11 07:34:01;;;;;;;5.88;3.03;;;15.10;99.90;;;;;;5046854;28;20079;-73
2021/05/11 07:36:28;;;;;;;10.40;6.65;;;15.20;99.90;;;;;;5034082;28;20056;-74
2021/05/11 07:38:54;;;;;;;5.10;3.25;;;15.30;99.90;;;;;;5045522;28;20042;-73
2021/05/11 07:41:21;;;;;;;6.28;3.20;;;15.40;99.90;;;;;;5039289;28;20081;-75
2021/05/11 07:43:54;;;;;;;7.03;3.55;;;15.60;99.90;;;;;;5036359;28;20056;-75
2021/05/11 08:10:07;;;;;;;6.55;3.75;;;16.00;99.90;;;;;;4973172;28;20091;-79
2021/05/11 08:18:25;;;;;;;4.00;3.20;;;16.10;99.90;;;;;;5033904;28;20129;-77
2021/05/11 08:23:36;;;;;;;4.80;2.90;;;16.30;99.90;;;;;;5030790;28;20049;-71
2021/05/11 08:28:49;;;;;;;4.30;3.10;;;16.70;99.90;;;;;;5029398;28;20652;-72
2021/05/11 08:31:16;;;;;;;3.70;2.28;;;17.20;99.90;;;;;;5045705;28;20068;-73
2021/05/11 08:33:43;;;;;;;3.72;2.45;;;17.20;99.90;;;;;;5032822;28;20115;-73
2021/05/11 08:36:11;;;;;;;2.85;2.40;;;17.40;99.90;;;;;;5031225;28;20489;-74
2021/05/11 08:38:38;;;;;;;3.92;3.08;;;17.60;99.90;;;;;;5032640;28;20400;-74
2021/05/11 08:41:05;;;;;;;4.20;3.17;;;17.50;99.90;;;;;;5031175;28;20080;-74
2021/05/11 08:43:37;;;;;;;3.33;3.03;;;17.40;99.90;;;;;;5030196;28;20045;-74
2021/05/11 08:46:06;;;;;;;7.57;2.85;;;17.10;99.90;;;;;;5029807;28;20143;-73
2021/05/11 08:48:34;;;;;;;3.45;2.95;;;17.00;99.90;;;;;;5031146;28;20158;-73
2021/05/11 08:53:50;;;;;;;3.38;2.95;;;17.30;99.90;;;;;;5030731;28;20053;-76
2021/05/11 09:44:51;;;;;;;10.18;4.57;;;17.30;99.90;;;;;;5034815;28;20135;-74
2021/05/11 09:54:59;;;;;;;5.50;4.05;;;17.90;98.70;;;;;;5032685;28;20064;-75
2021/05/11 10:40:39;;;;;;;6.30;4.05;;;17.40;99.10;;;;;;5033467;28;20056;-74
2021/05/11 10:46:46;;;;;;;7.90;4.35;;;17.60;97.90;;;;;;5032568;28;20053;-73
2021/05/11 10:49:42;;;;;;;6.20;4.00;;;17.60;97.90;;;;;;5032431;28;20055;-73
2021/05/11 10:52:38;;;;;;;5.88;3.55;;;17.60;97.70;;;;;;5023968;28;20183;-72
2021/05/11 10:57:51;;;;;;;4.90;3.30;;;17.70;97.70;;;;;;5032575;28;20342;-73
2021/05/11 11:00:23;;;;;;;3.97;3.38;;;18.00;96.80;;;;;;5040770;28;20041;-72
2021/05/11 11:03:17;;;;;;;5.85;2.80;;;18.00;97.00;;;;;;5041531;28;20114;-73
2021/05/11 11:05:54;;;;;;;3.20;2.70;;;18.00;96.70;;;;;;5064627;28;20155;-73
2021/05/11 11:08:38;;;;;;;5.13;2.85;;;18.30;94.90;;;;;;5041003;28;20119;-73
2021/05/11 11:11:12;;;;;;;3.35;2.88;;;18.40;93.60;;;;;;5042558;28;20068;-71
2021/05/11 11:13:40;;;;;;;3.95;3.42;;;18.30;94.10;;;;;;5042869;28;20149;-72
2021/05/11 11:16:07;;;;;;;5.10;3.80;;;18.30;94.60;;;;;;5041413;28;20063;-72
2021/05/11 11:18:34;;;;;;;4.82;3.95;;;18.20;95.00;;;;;;5035772;28;20229;-72
2021/05/11 11:21:20;;;;;;;5.95;4.57;;;18.20;94.60;;;;;;5041477;28;20060;-73
2021/05/11 11:23:50;;;;;;;7.78;3.88;;;18.30;94.50;;;;;;5034555;28;20045;-72
2021/05/11 11:26:26;;;;;;;4.15;3.47;;;18.30;94.10;;;;;;5040009;28;20056;-73
2021/05/11 11:29:03;;;;;;;4.60;2.72;;;18.30;93.40;;;;;;5042634;28;20470;-72
2021/05/11 11:31:50;;;;;;;4.20;2.50;;;18.20;93.10;;;;;;5038784;28;20589;-73
2021/05/11 11:34:25;;;;;;;5.25;2.70;;;18.20;93.60;;;;;;5038222;28;20126;-72
2021/05/11 11:37:00;;;;;;;5.20;4.00;;;18.10;93.30;;;;;;5039374;28;20052;-72
2021/05/11 11:39:32;;;;;;;10.70;3.50;;;18.00;94.80;;;;;;5040662;28;20049;-74
2021/05/11 11:42:01;;;;;;;5.97;3.17;;;17.90;95.30;;;;;;5040923;28;20106;-73
2021/05/11 11:44:33;;;;;;;5.45;3.30;;;17.70;94.80;;;;;;5042908;28;20081;-73
2021/05/11 11:47:05;;;;;;;4.50;3.03;;;17.70;95.10;;;;;;5025113;28;20494;-74
2021/05/11 11:49:39;;;;;;;7.68;3.63;;;17.70;94.90;;;;;;5042767;28;20592;-73
2021/05/11 11:52:11;;;;;;;12.35;4.25;;;17.70;95.60;;;;;;5040781;28;20072;-74
2021/05/11 12:00:30;;;;;;;5.97;3.45;;;17.10;97.70;;;;;;5037746;28;20081;-73
2021/05/11 12:03:09;;;;;;;6.65;4.03;;;16.90;98.30;;;;;;5035896;28;20129;-73
2021/05/11 12:05:39;;;;;;;6.93;4.15;;;16.90;98.60;;;;;;5040156;28;20099;-73
2021/05/11 12:10:44;;;;;;;4.10;2.92;;;16.70;98.60;;;;;;5041333;28;20056;-74
2021/05/11 12:13:13;;;;;;;5.45;2.70;;;16.60;98.20;;;;;;5042486;28;20095;-73
2021/05/11 12:15:41;;;;;;;2.78;2.42;;;16.40;98.50;;;;;;5040591;28;20049;-72
2021/05/11 12:21:19;;;;;;;3.38;1.95;;;16.20;99.20;;;;;;5040806;28;20052;-73
2021/05/11 12:23:47;;;;;;;2.28;1.65;;;16.10;99.10;;;;;;5034922;28;20058;-71
2021/05/11 12:26:19;;;;;;;2.88;1.90;;;16.10;99.40;;;;;;5041588;28;20053;-71
2021/05/11 12:28:46;;;;;;;5.05;2.70;;;16.00;99.90;;;;;;5041916;28;20063;-73
2021/05/11 12:31:13;;;;;;;4.53;2.35;;;16.00;99.90;;;;;;5041824;28;20764;-73
2021/05/11 12:33:43;;;;;;;5.57;1.90;;;16.10;99.90;;;;;;5042134;28;20098;-73
2021/05/11 12:36:23;;;;;;;8.05;2.03;;;16.10;99.90;;;;;;5044363;28;20053;-73
2021/05/11 12:38:51;;;;;;;9.77;2.42;;;16.10;99.90;;;;;;5045542;28;20125;-73
2021/05/11 12:41:32;;;;;;;3.83;2.00;;;16.10;99.90;;;;;;5044914;28;20056;-72
2021/05/11 12:44:01;;;;;;;5.22;2.83;;;16.10;99.90;;;;;;5045056;28;20049;-73
2021/05/11 12:46:36;;;;;;;5.15;2.83;;;16.20;99.90;;;;;;5043842;28;20045;-72
2021/05/11 12:49:21;;;;;;;3.22;1.90;;;16.20;99.90;;;;;;5043426;28;20114;-73
2021/05/11 12:51:53;;;;;;;4.05;2.42;;;16.20;99.90;;;;;;5039251;28;20056;-73
2021/05/11 12:54:34;;;;;;;4.65;1.73;;;16.20;99.90;;;;;;5045223;28;20069;-73
2021/05/11 12:57:22;;;;;;;2.05;1.55;;;16.20;99.70;;;;;;5045153;28;21468;-73
2021/05/11 13:35:27;;;;;;;4.35;1.33;;;16.30;99.90;;;;;;5041898;28;20049;-71
2021/05/11 13:37:54;;;;;;;4.03;1.58;;;16.20;99.90;;;;;;5041667;28;20098;-73
2021/05/11 13:40:22;;;;;;;5.40;1.73;;;16.00;99.90;;;;;;5040256;28;20061;-72
2021/05/11 13:42:51;;;;;;;4.35;1.80;;;16.00;99.90;;;;;;5042653;28;20037;-72
2021/05/11 13:45:18;;;;;;;6.70;2.53;;;15.90;99.90;;;;;;5042525;28;20078;-71
2021/05/11 13:53:19;;;;;;;3.83;2.40;;;15.60;99.90;;;;;;5046206;28;20040;-74
2021/05/11 14:04:05;;;;;;;8.35;3.72;;;15.20;99.90;;;;;;5049195;28;20060;-74
2021/05/11 14:06:32;;;;;;;5.57;2.13;;;15.30;99.90;;;;;;5055105;28;20038;-74
2021/05/11 14:09:00;;;;;;;4.30;2.05;;;15.30;99.90;;;;;;5048196;28;20060;-74
2021/05/11 14:11:27;;;;;;;6.03;3.30;;;15.30;99.90;;;;;;5048216;28;20223;-74
2021/05/11 14:13:54;;;;;;;7.40;3.92;;;15.20;99.90;;;;;;5049757;28;20217;-75
2021/05/11 14:16:21;;;;;;;2.78;1.90;;;15.30;99.90;;;;;;5047612;28;20052;-74
2021/05/11 14:18:48;;;;;;;3.53;1.85;;;15.20;99.90;;;;;;5047290;28;20388;-73
2021/05/11 14:21:15;;;;;;;2.50;1.90;;;15.30;99.90;;;;;;5044447;28;20091;-73
2021/05/11 14:23:42;;;;;;;9.77;1.98;;;15.50;99.90;;;;;;5048089;28;20053;-73
2021/05/11 14:26:09;;;;;;;1.77;1.40;;;15.50;99.90;;;;;;5044737;28;20123;-74
2021/05/11 14:28:36;;;;;;;2.42;1.45;;;15.50;99.90;;;;;;5040510;28;20126;-73
2021/05/11 14:31:03;;;;;;;5.68;2.00;;;15.50;99.90;;;;;;5048878;28;20091;-73
2021/05/11 14:33:31;;;;;;;3.50;2.38;;;15.60;99.90;;;;;;5044819;28;20098;-74
2021/05/11 14:35:58;;;;;;;3.10;2.38;;;15.60;99.90;;;;;;5045688;28;20049;-75
2021/05/11 14:38:25;;;;;;;2.45;1.80;;;15.70;99.90;;;;;;5042174;28;20077;-73
2021/05/11 14:40:52;;;;;;;4.15;2.00;;;15.70;99.90;;;;;;5043249;28;20071;-75
2021/05/11 14:43:19;;;;;;;4.25;1.42;;;15.70;99.90;;;;;;5041815;28;20193;-76
2021/05/11 14:45:46;;;;;;;1.85;1.60;;;15.60;99.90;;;;;;5039778;28;20530;-75
2021/05/11 14:48:13;;;;;;;3.30;1.85;;;15.60;99.90;;;;;;5042008;28;20084;-79
2021/05/11 14:50:40;;;;;;;2.72;2.10;;;15.60;99.90;;;;;;5041025;28;20057;-77
2021/05/11 14:53:08;;;;;;;3.17;1.90;;;15.50;99.90;;;;;;5032610;28;20067;-77
2021/05/11 14:55:35;;;;;;;3.63;1.95;;;15.60;99.90;;;;;;5035661;28;20131;-77
2021/05/11 14:58:03;;;;;;;4.35;2.20;;;15.60;99.90;;;;;;5034370;28;20135;-77
2021/05/11 15:00:30;;;;;;;2.80;1.70;;;15.60;99.90;;;;;;5035331;28;20137;-77
2021/05/11 15:02:57;;;;;;;4.22;2.17;;;15.60;99.90;;;;;;5034044;28;20048;-77
2021/05/11 15:05:24;;;;;;;2.63;1.60;;;15.80;99.90;;;;;;5052723;28;20477;-78
2021/05/11 15:07:53;;;;;;;3.20;1.60;;;15.80;99.90;;;;;;5036752;28;20139;-77
2021/05/11 15:10:21;;;;;;;4.70;2.30;;;15.90;99.90;;;;;;5034417;28;20499;-78
2021/05/11 15:12:52;;;;;;;5.10;2.10;;;15.90;99.90;;;;;;5036319;28;20056;-78
2021/05/11 15:15:20;;;;;;;7.13;2.42;;;15.70;99.90;;;;;;5034236;28;20080;-77
2021/05/11 15:20:20;;;;;;;4.13;2.97;;;15.40;99.90;;;;;;5034899;28;20106;-78
2021/05/11 15:23:06;;;;;;;6.45;2.92;;;15.60;99.90;;;;;;5053286;28;20049;-78
2021/05/11 15:25:34;;;;;;;4.70;3.00;;;15.60;99.90;;;;;;5032630;28;20144;-77
2021/05/11 15:28:02;;;;;;;3.70;2.60;;;15.80;99.90;;;;;;5033211;28;20191;-77
2021/05/11 15:30:30;;;;;;;3.92;2.50;;;15.90;99.90;;;;;;5035441;28;20081;-77
2021/05/11 15:33:00;;;;;;;5.93;3.22;;;15.90;99.90;;;;;;5032663;28;20423;-77
2021/05/11 15:35:33;;;;;;;7.07;4.75;;;16.00;99.90;;;;;;5033127;28;20412;-77
2021/05/11 15:38:03;;;;;;;10.80;7.85;;;16.00;99.90;;;;;;5034170;28;20049;-76
2021/05/11 15:40:38;;;;;;;5.72;3.22;;;16.10;99.90;;;;;;5034782;28;20064;-78
2021/05/11 15:43:06;;;;;;;5.35;4.20;;;15.80;99.90;;;;;;5035792;28;20079;-77
2021/05/11 15:45:34;;;;;;;5.93;4.07;;;15.80;99.90;;;;;;5033283;28;20103;-77
2021/05/11 15:48:04;;;;;;;6.28;4.82;;;15.90;99.90;;;;;;5034632;28;20123;-76
2021/05/11 15:50:38;;;;;;;6.25;5.03;;;15.80;99.90;;;;;;5035637;28;20605;-77
2021/05/11 15:53:11;;;;;;;9.15;5.78;;;15.90;99.90;;;;;;5034966;28;20126;-78
2021/05/11 15:55:40;;;;;;;14.43;10.15;;;15.90;99.90;;;;;;5033735;28;20144;-78
2021/05/11 15:58:15;;;;;;;14.20;11.13;;;15.60;99.90;;;;;;5036970;28;20409;-77
2021/05/11 16:00:50;;;;;;;11.27;9.00;;;15.70;99.90;;;;;;5034604;28;20053;-78
2021/05/11 16:03:18;;;;;;;15.30;8.77;;;15.80;99.90;;;;;;5033419;28;20049;-76
2021/05/11 16:05:50;;;;;;;14.10;8.57;;;15.80;99.90;;;;;;5036948;28;20122;-78
2021/05/11 16:08:27;;;;;;;11.10;8.15;;;15.70;99.90;;;;;;5035512;28;20508;-78
2021/05/11 16:10:55;;;;;;;10.77;7.43;;;15.60;99.90;;;;;;5043279;28;20122;-77
2021/05/11 16:13:25;;;;;;;13.57;8.32;;;15.40;99.90;;;;;;5040044;28;20389;-77
2021/05/11 16:15:53;;;;;;;12.30;7.97;;;15.40;99.90;;;;;;5039059;28;20056;-77
2021/05/11 16:18:29;;;;;;;11.48;8.02;;;15.60;99.90;;;;;;5036560;28;20068;-78
2021/05/11 16:20:59;;;;;;;11.25;7.78;;;15.50;99.90;;;;;;5032145;28;20077;-77
2021/05/11 16:23:26;;;;;;;10.27;7.75;;;15.40;99.90;;;;;;5039104;28;20042;-76
2021/05/11 16:25:53;;;;;;;12.65;7.78;;;15.40;99.90;;;;;;5036971;28;20048;-78
2021/05/11 16:28:20;;;;;;;8.57;5.65;;;15.50;99.90;;;;;;5044429;28;20500;-78
2021/05/11 16:30:47;;;;;;;5.90;4.03;;;15.40;99.90;;;;;;5041998;28;20057;-76
2021/05/11 16:33:14;;;;;;;6.43;2.47;;;15.50;99.90;;;;;;5036403;28;20539;-77
2021/05/11 16:35:42;;;;;;;4.05;2.58;;;15.20;99.90;;;;;;5036876;28;20069;-77
2021/05/11 16:38:10;;;;;;;3.40;2.10;;;15.30;99.90;;;;;;5045311;28;20448;-78
2021/05/11 16:40:40;;;;;;;2.70;1.67;;;15.20;99.90;;;;;;5036114;28;20500;-78
2021/05/11 16:43:07;;;;;;;3.28;1.60;;;15.20;99.90;;;;;;5042240;28;20142;-76
2021/05/11 16:45:36;;;;;;;3.45;2.17;;;15.10;99.90;;;;;;5043804;28;20044;-77
2021/05/11 16:48:05;;;;;;;2.60;2.15;;;15.00;99.90;;;;;;5038476;28;20069;-76
2021/05/11 16:50:34;;;;;;;3.07;1.80;;;14.80;99.90;;;;;;5041402;28;20099;-76
2021/05/11 16:53:04;;;;;;;3.70;2.17;;;14.70;99.90;;;;;;5037165;28;20094;-78
2021/05/11 16:55:32;;;;;;;3.30;2.15;;;14.60;99.90;;;;;;5044129;28;20082;-78
2021/05/11 16:57:59;;;;;;;3.83;1.92;;;14.60;99.90;;;;;;5038746;28;20491;-78
2021/05/11 17:00:30;;;;;;;4.55;3.08;;;14.70;99.90;;;;;;5040071;28;20049;-77
2021/05/11 17:03:03;;;;;;;2.72;1.90;;;14.80;99.90;;;;;;5036887;28;20412;-77
2021/05/11 17:05:31;;;;;;;2.95;2.00;;;14.80;99.90;;;;;;5036758;28;20174;-78
2021/05/11 17:08:00;;;;;;;4.10;2.38;;;14.80;99.90;;;;;;5042873;28;20049;-78
2021/05/11 17:10:29;;;;;;;8.48;5.93;;;14.60;99.90;;;;;;5038870;28;20092;-77
2021/05/11 17:12:57;;;;;;;11.68;7.88;;;14.60;99.90;;;;;;5051514;28;20526;-77
2021/05/11 17:15:29;;;;;;;13.25;11.27;;;14.50;99.90;;;;;;5031450;28;20053;-77
2021/05/11 17:17:56;;;;;;;17.45;12.00;;;14.50;99.90;;;;;;5036530;28;20065;-77
2021/05/11 17:20:27;;;;;;;18.63;12.18;;;14.50;99.90;;;;;;5033076;28;20045;-77
2021/05/11 17:22:57;;;;;;;11.07;7.90;;;14.60;99.90;;;;;;5035934;28;20435;-77
2021/05/11 17:25:25;;;;;;;7.35;4.97;;;14.60;99.90;;;;;;5034857;28;20049;-78
2021/05/11 17:27:55;;;;;;;2.92;1.77;;;14.60;99.90;;;;;;5036210;28;20057;-77
2021/05/11 17:30:26;;;;;;;3.78;2.10;;;14.50;99.90;;;;;;5037396;28;20392;-79